Flight Track Log - Related Links

Times and Time Zones

All times are in EST time to prevent confusion due to time zone crossing. See the DAL3796 flight status page for this flight to view local times or setup timezone preferences in your user account.

Time Position Orientation Groundspeed Altitude Reporting Facility
EST Latitude Longitude Course Direction KTS MPH feet Rate Location/Type
Tue 10:35:00 AM 44.9000 -93.2333 270° West 146 168 2,400  Level Minneapolis TRACON
Tue 10:35:54 AM 44.9000 -93.3000 270° West 209 241 4,600 2,173 Climbing Minneapolis TRACON
Tue 10:37:07 AM 44.8506 -93.3878 232° Southwest 275 316 7,000 2,463 Climbing Minneapolis Center
Tue 10:38:08 AM 44.8031 -93.4728 232° Southwest 280 322 10,100 2,710 Climbing Minneapolis Center
Tue 10:39:11 AM 44.7394 -93.5872 232° Southwest 316 364 12,600 2,226 Climbing Minneapolis Center
Tue 10:40:12 AM 44.6833 -93.6875 232° Southwest 327 376 14,700 2,049 Climbing Minneapolis Center
Tue 10:41:14 AM 44.6111 -93.7664 218° Southwest 341 392 16,800 1,984 Climbing Minneapolis Center
Tue 10:42:16 AM 44.5236 -93.8194 203° Southwest 345 397 18,800 1,756 Climbing Minneapolis Center
Tue 10:43:17 AM 44.4347 -93.8725 203° Southwest 348 400 20,400 1,463 Climbing Minneapolis Center
Tue 10:44:19 AM 44.3425 -93.9269 203° Southwest 355 409 21,800 1,317 Climbing Minneapolis Center
Tue 10:45:20 AM 44.2272 -93.9939 203° Southwest 371 427 23,100 1,220 Climbing Minneapolis Center
Tue 10:46:22 AM 44.1303 -94.0497 202° Southwest 376 433 24,300 1,065 Climbing Minneapolis Center
Tue 10:47:24 AM 44.0319 -94.1064 203° Southwest 381 438 25,300 878 Climbing Minneapolis Center
Tue 10:48:25 AM 43.9317 -94.1650 203° Southwest 390 449 26,100 829 Climbing Minneapolis Center
Tue 10:49:27 AM 43.8286 -94.2250 203° Southwest 399 459 27,000 1,016 Climbing Minneapolis Center
Tue 10:50:29 AM 43.7103 -94.2925 202° Southwest 400 460 28,200 927 Climbing Minneapolis Center
Tue 10:51:30 AM 43.6081 -94.3500 202° Southwest 397 457 28,900 634 Climbing Minneapolis Center
Tue 10:52:32 AM 43.5050 -94.4083 202° Southwest 399 459 29,500 537 Climbing Minneapolis Center
Tue 10:53:33 AM 43.4011 -94.4681 203° Southwest 403 464 30,000 244 Climbing Minneapolis Center
Tue 10:54:35 AM 43.2972 -94.5269 202° Southwest 404 465 30,000  Level Minneapolis Center
Tue 10:55:37 AM 43.1919 -94.5867 202° Southwest 408 470 30,000  Level Minneapolis Center
Tue 10:56:38 AM 43.0867 -94.6456 202° Southwest 409 471 30,000  Level Minneapolis Center
Tue 10:57:40 AM 42.9819 -94.7047 202° Southwest 407 468 30,000  Level Minneapolis Center
Tue 10:58:41 AM 42.8775 -94.7619 202° Southwest 405 466 30,000  Level Minneapolis Center
Tue 10:59:43 AM 42.7517 -94.8333 203° Southwest 407 468 30,000  Level Minneapolis Center
Tue 11:00:44 AM 42.6625 -94.8806 201° Southwest 403 464 30,000  Level Minneapolis Center
Tue 11:01:46 AM 42.5569 -94.9389 202° Southwest 406 467 30,000  Level Minneapolis Center
Tue 11:02:47 AM 42.4317 -95.0089 202° Southwest 406 467 30,000  Level Minneapolis Center
Tue 11:03:49 AM 42.3269 -95.0661 202° Southwest 407 468 30,000  Level Minneapolis Center
Tue 11:04:50 AM 42.2211 -95.1244 202° Southwest 410 472 30,000  Level Minneapolis Center
Tue 11:05:52 AM 42.1142 -95.1803 201° Southwest 410 472 30,000  Level Minneapolis Center
Tue 11:06:53 AM 42.0075 -95.2383 202° Southwest 413 475 30,000  Level Minneapolis Center
Tue 11:07:55 AM 41.8994 -95.2961 202° Southwest 417 480 30,000  Level Minneapolis Center
Tue 11:08:56 AM 41.7908 -95.3542 202° Southwest 419 482 30,000  Level Minneapolis Center
Tue 11:09:58 AM 41.6833 -95.4119 202° Southwest 415 478 30,000  Level Minneapolis Center
Tue 11:10:59 AM 41.5761 -95.4703 202° Southwest 415 478 30,000  Level Minneapolis Center
Tue 11:12:01 AM 41.4692 -95.5267 202° Southwest 412 474 30,000  Level Minneapolis Center
Tue 11:13:02 AM 41.3403 -95.5942 201° Southwest 411 473 30,000  Level Minneapolis Center
Tue 11:14:03 AM 41.2356 -95.6506 202° Southwest 406 467 30,000  Level Minneapolis Center
Tue 11:15:05 AM 41.1300 -95.7061 202° Southwest 406 467 30,000  Level Minneapolis Center
Tue 11:16:06 AM 41.0222 -95.7611 201° Southwest 406 467 30,000  Level Minneapolis Center
Tue 11:17:08 AM 40.9172 -95.8164 202° Southwest 405 466 30,000  Level Minneapolis Center
Tue 11:18:09 AM 40.8117 -95.8708 201° Southwest 404 465 30,000  Level Minneapolis Center
Tue 11:19:11 AM 40.7067 -95.9256 202° Southwest 405 466 30,000  Level Minneapolis Center
Tue 11:20:12 AM 40.6011 -95.9803 201° Southwest 405 466 30,000  Level Minneapolis Center
Tue 11:21:14 AM 40.4953 -96.0350 201° Southwest 408 470 30,000  Level Minneapolis Center
Tue 11:22:15 AM 40.3908 -96.0881 201° Southwest 404 465 30,000  Level Minneapolis Center
Tue 11:23:17 AM 40.2858 -96.1419 201° Southwest 404 465 30,000  Level Minneapolis Center
Tue 11:24:18 AM 40.1600 -96.2053 201° Southwest 403 464 30,000  Level Minneapolis Center
Tue 11:25:20 AM 40.0544 -96.2564 200° South 403 464 30,000  Level Minneapolis Center
Tue 11:26:21 AM 39.9464 -96.2969 196° South 405 466 30,000  Level Minneapolis Center
Tue 11:27:23 AM 39.8386 -96.3389 197° South 404 465 30,000  Level Minneapolis Center
Tue 11:28:24 AM 39.7308 -96.3806 197° South 403 464 30,000  Level Minneapolis Center
Tue 11:29:26 AM 39.6239 -96.4233 197° South 403 464 30,000  Level Minneapolis Center
Tue 11:30:27 AM 39.5164 -96.4636 196° South 402 463 30,000  Level Minneapolis Center
Tue 11:31:29 AM 39.4106 -96.5067 197° South 401 461 30,000  Level Minneapolis Center
Tue 11:32:30 AM 39.3036 -96.5447 195° South 400 460 30,000  Level Minneapolis Center
Tue 11:33:32 AM 39.1758 -96.5947 197° South 399 459 30,000 -976 Level Minneapolis Center
Tue 11:34:33 AM 39.0694 -96.6372 197° South 399 459 28,000 -1,875 Descending Minneapolis Center
Tue 11:35:56 AM 38.9419 -96.6839 196° South 388 447 25,500 -1,958 Descending Kansas City Center
Tue 11:36:57 AM 38.8342 -96.7242 196° South 367 422 23,300 -2,032 Descending Kansas City Center
Tue 11:38:00 AM 38.7481 -96.7575 197° South 336 387 21,300 -1,951 Descending Kansas City Center
Tue 11:39:00 AM 38.6519 -96.7944 197° South 331 381 19,300 -1,839 Descending Kansas City Center
Tue 11:40:04 AM 38.5500 -96.8331 197° South 351 404 17,500 -1,680 Descending Kansas City Center
Tue 11:41:05 AM 38.4606 -96.8669 197° South 346 398 15,800 -1,714 Descending Kansas City Center
Tue 11:42:03 AM 38.3703 -96.9028 197° South 338 389 14,100 -1,770 Descending Kansas City Center
Tue 11:42:06 AM 38.3664 -96.9028 180° South 339 390 14,000 -1,000 Descending Kansas City Center
Tue 11:42:45 AM 38.3075 -96.9264 197° South 341 392 13,400 -938 Descending Kansas City Center
Tue 11:43:10 AM 38.2714 -96.9378 194° South 339 390 13,000 -1,164 Descending Kansas City Center
Tue 11:43:52 AM 38.2103 -96.9633 198° South 336 387 12,100 -1,475 Descending Kansas City Center
Tue 11:44:11 AM 38.1811 -96.9797 204° Southwest 332 382 11,500 -1,636 Descending Kansas City Center
Tue 11:44:47 AM 38.1400 -97.0175 216° Southwest 319 367 10,600 -1,574 Descending Kansas City Center
Tue 11:45:12 AM 38.1061 -97.0442 212° Southwest 309 356 9,900 -1,377 Descending Kansas City Center
Tue 11:45:48 AM 38.0722 -97.0761 217° Southwest 288 331 9,200 -1,400 Descending Kansas City Center
Tue 11:46:12 AM 38.0400 -97.0997 210° Southwest 296 341 8,500 -1,574 Descending Kansas City Center
Tue 11:46:49 AM 38.0022 -97.1325 214° Southwest 294 338 7,600 -1,500 Descending Kansas City Center
Tue 11:47:16 AM 37.9703 -97.1603 214° Southwest 290 334 6,900 -1,556 Descending Kansas City Center
Tue 11:47:43 AM 37.9425 -97.1872 217° Southwest 289 333 6,200 -900 Descending Kansas City Center
Tue 11:48:16 AM 37.9022 -97.2189 212° Southwest 284 327 6,000 -200 Descending Kansas City Center
Tue 11:48:43 AM 37.8764 -97.2400 213° Southwest 278 320 6,000  Level Kansas City Center
Tue 11:49:20 AM 37.8297 -97.2547 194° South 265 305 6,000 -98 Level Kansas City Center
Tue 11:49:44 AM 37.8050 -97.2619 193° South 256 295 5,900 -900 Descending Kansas City Center
Tue 11:50:20 AM 37.7636 -97.2767 196° South 248 285 5,100 -1,300 Descending Kansas City Center
Tue 11:50:44 AM 37.7400 -97.2853 196° South 237 273 4,600 -1,082 Descending Kansas City Center
Tue 11:51:21 AM 37.6942 -97.2994 194° South 240 276 4,000 -581 Descending Kansas City Center
Tue 11:51:46 AM 37.6747 -97.3061 195° South 236 272 4,000 -750 Level Kansas City Center
Tue 11:52:25 AM 37.6322 -97.3206 195° South 231 266 3,200 -857 Descending Kansas City Center
Tue 11:52:56 AM 37.5994 -97.3311 194° South 218 251 3,000 -98 Descending Kansas City Center
Tue 11:53:26 AM 37.5731 -97.3392 194° South 218 251 3,100 109 Climbing Kansas City Center
Tue 11:53:51 AM 37.5522 -97.3622 221° Southwest 215 247 3,100 -295 Level Kansas City Center
Tue 11:54:27 AM 37.5464 -97.4003 259° West 202 232 2,800 -444 Descending Kansas City Center
Tue 11:54:45 AM 37.5475 -97.4211 274° West 190 219 2,700 -281 Descending Kansas City Center
Tue 11:55:31 AM 37.5719 -97.4536 314° West 168 193 2,500 -358 Descending Kansas City Center
Tue 11:55:52 AM 37.5861 -97.4519 North 142 163 2,300 -393 Descending Kansas City Center
Tue 11:56:32 AM 37.6078 -97.4431 18° North 132 152 2,100 -492 Descending Kansas City Center
Tue 11:56:53 AM 37.6164 -97.4394 18° North 108 124 1,800 -700 Descending Kansas City Center
Tue 11:57:32 AM 37.6406 -97.4289 19° North 119 137 1,400 -615 Descending Kansas City Center

Login

Don't have an account? Register now (free) for customized features, flight alerts, and more!